createdAt,value
2019-05-18T00:02:18.536Z,6.53
2019-05-18T00:04:45.121Z,6.20
2019-05-18T00:07:13.992Z,6.28
2019-05-18T00:09:40.574Z,7.03
2019-05-18T00:12:07.161Z,7.03
2019-05-18T00:14:35.892Z,6.78
2019-05-18T00:17:02.755Z,7.03
2019-05-18T00:19:29.617Z,7.08
2019-05-18T00:21:58.522Z,6.93
2019-05-18T00:24:25.212Z,7.17
2019-05-18T00:26:52.111Z,6.83
2019-05-18T00:29:22.126Z,6.87
2019-05-18T00:31:48.708Z,6.30
2019-05-18T00:34:15.290Z,6.90
2019-05-18T00:36:44.090Z,6.63
2019-05-18T00:39:10.672Z,7.60
2019-05-18T00:41:37.289Z,6.73
2019-05-18T00:44:06.320Z,6.83
2019-05-18T00:46:32.902Z,7.23
2019-05-18T00:48:59.491Z,7.65
2019-05-18T00:51:28.612Z,7.20
2019-05-18T00:53:55.220Z,6.67
2019-05-18T00:56:22.151Z,7.63
2019-05-18T00:58:50.513Z,7.90
2019-05-18T01:01:17.100Z,6.80
2019-05-18T01:03:44.010Z,6.43
2019-05-18T01:06:14.019Z,6.80
2019-05-18T01:08:40.606Z,6.93
2019-05-18T01:11:07.474Z,7.37
2019-05-18T01:13:36.300Z,7.20
2019-05-18T01:16:03.148Z,7.73
2019-05-18T01:18:30.062Z,7.90
2019-05-18T01:20:58.483Z,7.70
2019-05-18T01:23:25.347Z,7.53
2019-05-18T01:25:51.981Z,6.43
2019-05-18T01:28:21.504Z,7.55
2019-05-18T01:30:48.393Z,7.53
2019-05-18T01:33:15.499Z,8.45
2019-05-18T01:35:43.677Z,8.73
2019-05-18T01:38:12.043Z,7.60
2019-05-18T01:40:38.656Z,8.37
2019-05-18T01:43:07.457Z,7.10
2019-05-18T01:45:34.055Z,7.67
2019-05-18T01:48:12.784Z,7.43
2019-05-18T01:50:32.200Z,7.37
2019-05-18T01:52:58.885Z,6.40
2019-05-18T01:55:25.495Z,6.87
2019-05-18T01:57:54.740Z,7.20
2019-05-18T02:00:22.457Z,7.62
2019-05-18T02:02:49.043Z,7.17
2019-05-18T02:05:18.002Z,7.80
2019-05-18T02:07:44.861Z,7.27
2019-05-18T02:10:11.443Z,6.70
2019-05-18T02:12:40.346Z,7.37
2019-05-18T02:15:06.930Z,7.93
2019-05-18T02:17:33.544Z,6.07
2019-05-18T02:20:02.174Z,7.40
2019-05-18T02:22:28.761Z,8.27
2019-05-18T02:24:55.597Z,7.40
2019-05-18T02:27:24.491Z,7.30
2019-05-18T02:29:51.292Z,8.03
2019-05-18T02:32:18.156Z,7.47
2019-05-18T02:34:46.836Z,6.63
2019-05-18T02:37:13.494Z,8.30
2019-05-18T02:39:40.077Z,7.67
2019-05-18T02:42:08.859Z,7.93
2019-05-18T02:44:35.466Z,7.00
2019-05-18T02:47:02.054Z,6.90
2019-05-18T02:49:31.921Z,6.53
2019-05-18T02:51:58.820Z,7.83
2019-05-18T02:54:25.421Z,7.87
2019-05-18T02:56:53.750Z,7.80
2019-05-18T02:59:20.332Z,8.00
2019-05-18T03:01:46.938Z,7.50
2019-05-18T03:04:16.055Z,7.28
2019-05-18T03:06:42.847Z,7.80
2019-05-18T03:09:09.708Z,7.45
2019-05-18T03:11:42.943Z,7.20
2019-05-18T03:14:09.534Z,7.53
2019-05-18T03:16:36.347Z,7.37
2019-05-18T03:19:08.697Z,7.23
2019-05-18T03:21:33.129Z,7.80
2019-05-18T03:23:59.725Z,6.87
2019-05-18T03:26:28.306Z,7.50
2019-05-18T03:28:55.165Z,7.28
2019-05-18T03:31:22.197Z,6.97
2019-05-18T03:33:52.141Z,6.43
2019-05-18T03:36:18.725Z,7.30
2019-05-18T03:38:45.598Z,7.30
2019-05-18T03:41:14.450Z,6.70
2019-05-18T03:43:41.292Z,7.23
2019-05-18T03:46:07.891Z,6.47
2019-05-18T03:48:37.334Z,7.13
2019-05-18T03:51:03.906Z,7.03
2019-05-18T03:53:30.689Z,6.30
2019-05-18T03:55:59.898Z,6.90
2019-05-18T03:58:26.653Z,7.57
2019-05-18T04:00:53.547Z,7.12
2019-05-18T04:03:22.074Z,7.47
2019-05-18T04:05:48.844Z,6.70
2019-05-18T04:08:15.433Z,7.10
2019-05-18T04:10:44.235Z,7.37
2019-05-18T04:13:11.191Z,6.75
2019-05-18T04:15:37.785Z,6.37
2019-05-18T04:18:06.241Z,7.40
2019-05-18T04:20:32.836Z,6.27
2019-05-18T04:22:59.419Z,8.27
2019-05-18T04:25:28.663Z,7.72
2019-05-18T04:27:55.335Z,8.00
2019-05-18T04:30:22.512Z,7.53
2019-05-18T04:32:51.006Z,7.87
2019-05-18T04:35:17.851Z,8.20
2019-05-18T04:37:44.715Z,7.72
2019-05-18T04:42:46.527Z,8.45
2019-05-18T04:45:13.141Z,8.80
2019-05-18T04:47:40.005Z,8.13
2019-05-18T04:50:08.358Z,8.33
2019-05-18T04:52:34.952Z,8.33
2019-05-18T04:55:01.863Z,7.80
2019-05-18T04:57:32.645Z,7.20
2019-05-18T04:59:59.218Z,7.95
2019-05-18T05:02:25.831Z,7.97
2019-05-18T05:04:56.684Z,7.67
2019-05-18T05:07:22.617Z,8.23
2019-05-18T05:09:49.206Z,7.83
2019-05-18T05:12:17.905Z,7.83
2019-05-18T05:14:45.664Z,8.33
2019-05-18T05:17:12.315Z,7.67
2019-05-18T05:19:41.131Z,7.63
2019-05-18T05:22:07.706Z,7.80
2019-05-18T05:24:34.578Z,7.37
2019-05-18T05:27:03.505Z,8.13
2019-05-18T05:29:30.104Z,7.43
2019-05-18T05:31:57.706Z,7.70
2019-05-18T05:34:26.507Z,7.97
2019-05-18T05:36:57.180Z,7.43
2019-05-18T05:39:25.535Z,8.30
2019-05-18T05:41:54.199Z,8.63
2019-05-18T05:44:21.866Z,9.07
2019-05-18T05:46:48.462Z,9.23
2019-05-18T05:49:20.353Z,8.90
2019-05-18T05:51:46.952Z,9.63
2019-05-18T05:54:13.823Z,10.77
2019-05-18T05:56:43.868Z,10.07
2019-05-18T05:59:11.596Z,9.33
2019-05-18T06:01:39.217Z,9.47
2019-05-18T06:04:07.917Z,10.53
2019-05-18T06:06:35.536Z,10.63
2019-05-18T06:09:03.285Z,12.30
2019-05-18T06:11:32.556Z,9.43
2019-05-18T06:14:00.155Z,10.30
2019-05-18T06:16:29.731Z,10.40
2019-05-18T06:18:58.502Z,10.60
2019-05-18T06:21:26.410Z,10.30
2019-05-18T06:23:54.046Z,10.20
2019-05-18T06:26:24.378Z,11.80
2019-05-18T06:28:51.018Z,11.40
2019-05-18T06:31:17.613Z,9.78
2019-05-18T06:33:47.349Z,11.17
2019-05-18T06:36:14.737Z,10.32
2019-05-18T06:38:41.381Z,9.90
2019-05-18T06:41:12.871Z,10.57
2019-05-18T06:43:39.793Z,9.93
2019-05-18T06:46:06.630Z,10.17
2019-05-18T06:48:36.135Z,10.53
2019-05-18T06:51:07.214Z,9.73
2019-05-18T06:53:31.174Z,10.53
2019-05-18T06:56:01.290Z,9.17
2019-05-18T06:58:28.158Z,10.00
2019-05-18T07:00:55.817Z,10.20
2019-05-18T07:03:25.037Z,10.53
2019-05-18T07:05:52.921Z,10.45
2019-05-18T07:08:20.528Z,10.53
2019-05-18T07:10:50.692Z,11.57
2019-05-18T07:13:20.706Z,9.87
2019-05-18T07:15:48.326Z,9.93
2019-05-18T07:18:18.276Z,10.30
2019-05-18T07:20:44.869Z,9.97
2019-05-18T07:23:11.461Z,10.77
2019-05-18T07:25:41.919Z,10.27
2019-05-18T07:28:09.551Z,9.08
2019-05-18T07:30:37.159Z,10.73
2019-05-18T07:33:07.768Z,10.87
2019-05-18T07:35:35.434Z,9.77
2019-05-18T07:38:02.783Z,10.70
2019-05-18T07:40:31.545Z,8.93
2019-05-18T07:42:59.109Z,11.20
2019-05-18T07:45:25.992Z,11.33
2019-05-18T07:47:54.918Z,10.63
2019-05-18T07:50:21.810Z,9.50
2019-05-18T07:52:48.398Z,9.43
2019-05-18T07:55:17.001Z,9.90
2019-05-18T07:57:43.799Z,9.90
2019-05-18T08:00:11.402Z,10.57
2019-05-18T08:02:41.031Z,10.40
2019-05-18T08:05:07.911Z,9.80
2019-05-18T08:07:34.807Z,10.30
2019-05-18T08:10:03.416Z,8.77
2019-05-18T08:12:30.292Z,9.77
2019-05-18T08:14:56.888Z,8.67
2019-05-18T08:17:25.886Z,9.88
2019-05-18T08:19:52.473Z,8.53
2019-05-18T08:22:19.268Z,9.10
2019-05-18T08:24:48.481Z,8.20
2019-05-18T08:27:15.303Z,8.67
2019-05-18T08:29:41.895Z,8.43
2019-05-18T08:32:10.940Z,8.30
2019-05-18T08:34:38.537Z,9.60
2019-05-18T08:37:05.429Z,8.83
2019-05-18T08:39:34.227Z,8.50
2019-05-18T08:42:00.875Z,9.90
2019-05-18T08:44:27.473Z,10.35
2019-05-18T08:47:00.511Z,9.20
2019-05-18T08:49:27.129Z,10.53
2019-05-18T08:52:07.440Z,10.27
2019-05-18T08:54:24.101Z,10.23
2019-05-18T08:56:50.989Z,9.57
2019-05-18T08:59:17.576Z,10.03
2019-05-18T09:01:47.728Z,11.08
2019-05-18T09:04:14.327Z,11.17
2019-05-18T09:06:40.932Z,10.83
2019-05-18T09:09:10.064Z,12.60
2019-05-18T09:11:36.663Z,11.93
2019-05-18T09:14:03.405Z,10.90
2019-05-18T09:16:32.371Z,11.90
2019-05-18T09:19:01.377Z,10.97
2019-05-18T09:21:28.971Z,11.37
2019-05-18T09:23:58.613Z,11.60
2019-05-18T09:26:25.308Z,10.43
2019-05-18T09:28:51.918Z,11.17
2019-05-18T09:31:21.447Z,11.13
2019-05-18T09:33:49.356Z,10.23
2019-05-18T09:36:16.594Z,11.90
2019-05-18T09:38:46.174Z,10.30
2019-05-18T09:41:12.798Z,10.70
2019-05-18T09:43:39.607Z,11.17
2019-05-18T09:46:08.578Z,10.03
2019-05-18T09:48:35.553Z,10.60
2019-05-18T09:51:02.252Z,11.07
2019-05-18T09:53:30.967Z,10.30
2019-05-18T09:55:57.727Z,10.40
2019-05-18T09:58:24.601Z,10.18
2019-05-18T10:00:53.530Z,9.70
2019-05-18T10:03:20.115Z,10.43
2019-05-18T10:05:46.713Z,11.40
2019-05-18T10:08:16.114Z,11.47
2019-05-18T10:10:42.887Z,11.53
2019-05-18T10:13:09.763Z,11.43
2019-05-18T10:15:38.558Z,11.97
2019-05-18T10:18:05.723Z,11.53
2019-05-18T10:20:32.631Z,11.83
2019-05-18T10:23:12.464Z,13.23
2019-05-18T10:25:30.171Z,13.87
2019-05-18T10:27:56.762Z,13.03
2019-05-18T10:30:25.757Z,13.43
2019-05-18T10:32:52.453Z,13.80
2019-05-18T10:35:20.078Z,14.10
2019-05-18T10:37:48.858Z,13.50
2019-05-18T10:40:15.464Z,12.78
2019-05-18T10:42:42.325Z,13.33
2019-05-18T10:45:13.228Z,14.20
2019-05-18T10:47:40.153Z,15.13
2019-05-18T10:50:06.747Z,15.13
2019-05-18T10:52:35.714Z,14.57
2019-05-18T10:57:50.063Z,15.13
2019-05-18T11:00:16.670Z,15.63
2019-05-18T11:02:43.322Z,15.87
2019-05-18T11:05:11.965Z,17.17
2019-05-18T11:07:38.840Z,15.23
2019-05-18T11:10:05.650Z,16.10
2019-05-18T11:12:34.470Z,17.90
2019-05-18T11:15:01.052Z,18.03
2019-05-18T11:17:28.018Z,16.83
2019-05-18T11:19:56.690Z,18.67
2019-05-18T11:22:23.289Z,16.63
2019-05-18T11:24:50.167Z,19.27
2019-05-18T11:27:19.298Z,19.33
2019-05-18T11:29:45.891Z,20.08
2019-05-18T11:32:12.758Z,20.40
2019-05-18T11:34:44.403Z,18.42
2019-05-18T11:37:10.997Z,20.73
2019-05-18T11:39:37.589Z,19.97
2019-05-18T11:42:06.257Z,17.80
2019-05-18T11:44:32.848Z,19.40
2019-05-18T11:46:59.462Z,20.40
2019-05-18T11:49:29.159Z,20.47
2019-05-18T11:51:55.905Z,18.10
2019-05-18T11:54:22.502Z,18.30
2019-05-18T11:56:51.198Z,17.03
2019-05-18T11:59:17.761Z,19.83
2019-05-18T12:04:13.083Z,18.65
2019-05-18T12:06:40.024Z,19.57
2019-05-18T12:09:06.692Z,20.27
2019-05-18T12:11:35.510Z,21.00
2019-05-18T12:14:02.359Z,20.30
2019-05-18T12:16:28.986Z,21.27
2019-05-18T12:18:57.898Z,20.27
2019-05-18T12:21:24.491Z,18.67
2019-05-18T12:23:52.108Z,19.57
2019-05-18T12:26:22.003Z,19.93
2019-05-18T12:28:49.089Z,19.42
2019-05-18T12:31:16.977Z,18.92
2019-05-18T12:33:47.032Z,18.33
2019-05-18T12:36:15.565Z,20.67
2019-05-18T12:38:42.209Z,20.53
2019-05-18T12:41:11.887Z,18.47
2019-05-18T12:43:39.792Z,18.70
2019-05-18T12:46:06.753Z,18.43
2019-05-18T12:48:40.325Z,18.17
2019-05-18T12:51:10.544Z,19.82
2019-05-18T12:53:37.495Z,18.93
2019-05-18T12:56:06.650Z,19.60
2019-05-18T12:58:33.575Z,18.67
2019-05-18T13:01:00.752Z,20.00
2019-05-18T13:03:30.823Z,18.57
2019-05-18T13:05:57.693Z,18.90
2019-05-18T13:08:24.585Z,20.20
2019-05-18T13:20:41.542Z,20.30
2019-05-18T13:25:37.674Z,21.94
2019-05-18T13:28:04.587Z,20.33
2019-05-18T13:30:31.460Z,22.03
2019-05-18T13:32:59.979Z,22.23
2019-05-18T13:35:26.887Z,18.70
2019-05-18T13:37:53.598Z,18.83
2019-05-18T14:19:49.477Z,21.73
2019-05-18T14:22:16.190Z,22.90
2019-05-18T14:27:19.201Z,19.62
2019-05-18T14:29:45.821Z,19.30
2019-05-18T14:32:13.460Z,19.70
2019-05-18T14:34:42.100Z,18.30
2019-05-18T14:37:09.045Z,21.53
2019-05-18T14:39:35.905Z,20.57
2019-05-18T14:42:07.853Z,20.93
2019-05-18T14:44:34.791Z,19.40
2019-05-18T14:47:01.685Z,17.80
2019-05-18T14:49:31.630Z,19.73
2019-05-18T14:51:58.811Z,20.35
2019-05-18T14:54:25.933Z,20.70
2019-05-18T15:43:46.769Z,18.20
2019-05-18T16:45:50.154Z,15.90
2019-05-18T16:53:18.235Z,18.85
2019-05-18T16:55:45.139Z,18.63
2019-05-18T16:58:12.049Z,18.23
2019-05-18T17:00:40.737Z,18.87
2019-05-18T17:03:07.618Z,17.90
2019-05-18T17:05:34.502Z,18.73
2019-05-18T17:10:36.257Z,18.55
2019-05-18T17:13:03.132Z,17.63
2019-05-18T17:15:30.330Z,19.02
2019-05-18T17:18:02.721Z,16.10
2019-05-18T17:20:29.624Z,18.10
2019-05-18T17:22:56.515Z,18.83
2019-05-18T17:25:25.651Z,17.27
2019-05-18T17:27:52.543Z,19.20
2019-05-18T17:30:19.457Z,19.10
2019-05-18T17:32:48.659Z,19.23
2019-05-18T17:35:15.332Z,19.07
2019-05-18T17:37:42.198Z,17.80
2019-05-18T17:40:12.092Z,19.32
2019-05-18T17:42:38.965Z,17.90
2019-05-18T17:45:06.156Z,19.62
2019-05-18T17:47:34.942Z,19.17
2019-05-18T17:50:02.129Z,19.17
2019-05-18T17:52:28.989Z,21.17
2019-05-18T17:55:00.721Z,18.62
2019-05-18T17:57:27.593Z,19.93
2019-05-18T17:59:54.922Z,19.85
2019-05-18T18:02:23.381Z,19.05
2019-05-18T18:04:53.975Z,20.25
2019-05-18T18:07:19.133Z,19.93
2019-05-18T18:09:51.405Z,21.67
2019-05-18T18:12:18.292Z,20.00
2019-05-18T18:14:44.876Z,17.60
2019-05-18T18:17:17.544Z,19.90
2019-05-18T18:19:43.000Z,19.63
2019-05-18T18:22:13.615Z,21.07
2019-05-18T18:24:42.849Z,19.65
2019-05-18T18:27:24.195Z,20.15
2019-05-18T18:29:38.354Z,21.07
2019-05-18T18:32:07.349Z,19.43
2019-05-18T18:34:34.227Z,19.45
2019-05-18T18:37:01.089Z,23.17
2019-05-18T18:42:02.048Z,26.13
2019-05-18T18:44:28.926Z,25.63
2019-05-18T18:46:55.545Z,24.60
2019-05-18T18:49:24.245Z,24.80
2019-05-18T18:51:50.962Z,22.70
2019-05-18T18:54:17.693Z,23.40
2019-05-18T18:59:19.651Z,22.33
2019-05-18T19:01:46.412Z,23.18
2019-05-18T19:04:15.056Z,23.00
2019-05-18T19:06:43.838Z,24.10
2019-05-18T19:09:14.845Z,23.32
2019-05-18T19:11:42.934Z,22.07
2019-05-18T19:16:44.466Z,23.30
2019-05-18T19:19:12.091Z,23.30
2019-05-18T19:26:45.589Z,23.20
2019-05-18T19:29:12.177Z,23.70
2019-05-18T19:31:38.775Z,21.83
2019-05-18T19:34:07.862Z,22.43
2019-05-18T19:36:34.718Z,23.07
2019-05-18T19:39:01.297Z,24.40
2019-05-18T19:44:05.415Z,23.07
2019-05-18T19:46:33.040Z,23.10
2019-05-18T19:48:59.648Z,22.80
2019-05-18T19:51:29.907Z,22.90
2019-05-18T19:53:56.796Z,22.53
2019-05-18T19:56:23.413Z,22.53
2019-05-18T20:01:27.457Z,23.90
2019-05-18T20:03:55.044Z,23.63
2019-05-18T20:06:22.965Z,22.50
2019-05-18T20:08:55.040Z,25.57
2019-05-18T20:11:22.921Z,24.07
2019-05-18T20:13:50.745Z,26.13
2019-05-18T20:16:19.449Z,25.30
2019-05-18T20:18:46.170Z,24.30
2019-05-18T20:21:14.056Z,25.27
2019-05-18T20:23:45.997Z,23.77
2019-05-18T20:26:16.906Z,24.87
2019-05-18T20:28:43.804Z,25.13
2019-05-18T20:31:13.560Z,22.80
2019-05-18T20:33:40.318Z,23.67
2019-05-18T20:36:07.922Z,27.00
2019-05-18T20:38:36.634Z,25.32
2019-05-18T20:41:03.377Z,24.13
2019-05-18T20:43:30.279Z,25.27
2019-05-18T20:45:58.945Z,24.00
2019-05-18T20:48:25.870Z,24.73
2019-05-18T20:50:52.480Z,23.23
2019-05-18T20:53:21.803Z,25.08
2019-05-18T20:55:48.407Z,25.37
2019-05-18T20:58:15.021Z,25.33
2019-05-18T21:00:43.440Z,23.10
2019-05-18T21:03:10.034Z,24.47
2019-05-18T21:05:36.651Z,23.47
2019-05-18T21:08:05.244Z,24.27
2019-05-18T21:10:32.104Z,25.55
2019-05-18T21:12:59.040Z,23.43
2019-05-18T21:15:29.695Z,24.40
2019-05-18T21:17:56.467Z,24.57
2019-05-18T21:20:23.079Z,25.37
2019-05-18T21:22:51.931Z,24.67
2019-05-18T21:25:18.532Z,25.07
2019-05-18T21:27:45.250Z,26.73
2019-05-18T21:30:14.076Z,23.85
2019-05-18T21:32:40.994Z,24.23
2019-05-18T21:35:07.898Z,25.32
2019-05-18T21:37:37.701Z,30.27
2019-05-18T21:40:04.292Z,26.27
2019-05-18T21:42:30.924Z,26.35
2019-05-18T21:44:59.854Z,28.43
2019-05-18T21:47:26.726Z,23.98
2019-05-18T21:49:53.320Z,25.13
2019-05-18T21:52:22.044Z,26.10
2019-05-18T21:54:48.633Z,27.53
2019-05-18T21:57:15.231Z,25.37
2019-05-18T22:02:19.476Z,25.70
2019-05-18T22:04:46.194Z,26.13
2019-05-18T22:07:13.062Z,29.95
2019-05-18T22:09:41.589Z,27.17
2019-05-18T22:12:08.171Z,28.67
2019-05-18T22:14:34.763Z,29.33
2019-05-18T22:17:05.013Z,31.07
2019-05-18T22:19:31.609Z,26.40
2019-05-18T22:21:58.776Z,29.02
2019-05-18T22:24:27.206Z,27.30
2019-05-18T22:26:54.811Z,26.40
2019-05-18T22:29:21.403Z,26.87
2019-05-18T22:34:22.102Z,27.13
2019-05-18T22:36:48.711Z,26.77
2019-05-18T22:39:15.306Z,27.20
2019-05-18T22:41:46.808Z,30.93
2019-05-18T22:44:13.697Z,26.60
2019-05-18T22:46:40.274Z,26.60
2019-05-18T22:49:08.949Z,26.03
2019-05-18T22:51:35.822Z,28.40
2019-05-18T22:54:02.500Z,29.60
2019-05-18T22:56:32.145Z,28.07
2019-05-18T22:58:58.742Z,27.27
2019-05-18T23:01:25.446Z,31.03
2019-05-18T23:03:54.212Z,28.63
2019-05-18T23:06:21.088Z,26.60
2019-05-18T23:08:47.677Z,26.13
2019-05-18T23:11:17.049Z,28.93
2019-05-18T23:13:43.916Z,27.37
2019-05-18T23:16:10.590Z,27.57
2019-05-18T23:18:39.679Z,26.77
2019-05-18T23:21:06.278Z,30.70
2019-05-18T23:23:32.855Z,28.83
2019-05-18T23:26:02.419Z,27.53
2019-05-18T23:28:29.318Z,29.60
2019-05-18T23:30:56.188Z,28.90
2019-05-18T23:33:24.837Z,27.07
2019-05-18T23:35:51.459Z,26.47
2019-05-18T23:38:18.075Z,26.30
2019-05-18T23:40:47.345Z,27.27
2019-05-18T23:43:13.933Z,25.73
2019-05-18T23:45:40.531Z,24.93
2019-05-18T23:48:10.911Z,24.73
2019-05-18T23:50:37.555Z,26.77
2019-05-18T23:53:04.435Z,26.03
2019-05-18T23:55:33.660Z,26.23
2019-05-18T23:58:05.294Z,28.60
